createdAt,value
2023-05-24T00:04:05.673Z,7.60
2023-05-24T00:08:59.088Z,9.35
2023-05-24T00:13:52.395Z,7.40
2023-05-24T00:18:47.219Z,9.05
2023-05-24T00:23:42.118Z,7.38
2023-05-24T00:28:35.923Z,7.15
2023-05-24T00:33:29.787Z,7.05
2023-05-24T00:38:24.623Z,7.63
2023-05-24T00:43:19.186Z,7.07
2023-05-24T00:48:13.477Z,6.93
2023-05-24T00:53:08.172Z,6.75
2023-05-24T00:58:03.474Z,6.78
2023-05-24T01:02:57.178Z,8.43
2023-05-24T01:08:05.278Z,7.63
2023-05-24T01:13:08.455Z,6.88
2023-05-24T01:18:10.101Z,6.93
2023-05-24T01:23:17.773Z,6.68
2023-05-24T01:28:13.941Z,7.32
2023-05-24T01:33:07.762Z,6.28
2023-05-24T01:38:01.156Z,8.07
2023-05-24T01:43:05.618Z,7.03
2023-05-24T01:48:18.762Z,6.25
2023-05-24T01:53:19.125Z,6.85
2023-05-24T01:58:17.016Z,7.10
2023-05-24T02:03:14.615Z,6.75
2023-05-24T02:08:08.968Z,5.97
2023-05-24T02:13:02.307Z,5.88
2023-05-24T02:17:55.732Z,6.60
2023-05-24T02:22:50.592Z,5.85
2023-05-24T02:27:47.125Z,5.80
2023-05-24T02:32:40.962Z,6.07
2023-05-24T02:37:34.377Z,5.40
2023-05-24T02:42:31.297Z,6.18
2023-05-24T02:47:27.187Z,5.55
2023-05-24T02:52:21.857Z,6.97
2023-05-24T02:57:15.540Z,7.15
2023-05-24T03:02:15.897Z,6.88
2023-05-24T03:07:09.327Z,5.90
2023-05-24T03:12:02.631Z,6.53
2023-05-24T03:16:56.202Z,4.90
2023-05-24T03:21:52.349Z,4.28
2023-05-24T03:26:47.692Z,3.88
2023-05-24T03:31:41.158Z,4.28
2023-05-24T03:36:37.632Z,3.78
2023-05-24T03:41:32.498Z,3.92
2023-05-24T03:46:25.794Z,4.03
2023-05-24T03:51:19.223Z,4.53
2023-05-24T03:56:12.515Z,4.22
2023-05-24T04:01:08.142Z,4.88
2023-05-24T04:06:01.579Z,4.30
2023-05-24T04:10:54.983Z,4.30
2023-05-24T04:15:48.320Z,4.85
2023-05-24T04:20:43.172Z,4.95
2023-05-24T04:25:36.553Z,5.65
2023-05-24T04:30:30.398Z,5.60
2023-05-24T04:35:23.948Z,6.40
2023-05-24T04:40:20.767Z,8.00
2023-05-24T04:45:14.270Z,7.13
2023-05-24T04:50:08.775Z,8.10
2023-05-24T04:55:02.127Z,8.43
2023-05-24T04:59:56.822Z,9.55
2023-05-24T05:04:50.163Z,10.00
2023-05-24T05:09:43.498Z,10.48
2023-05-24T05:14:38.264Z,10.45
2023-05-24T05:19:33.045Z,9.73
2023-05-24T05:24:26.587Z,9.90
2023-05-24T05:29:20.922Z,8.90
2023-05-24T05:34:15.516Z,9.45
2023-05-24T05:39:10.637Z,8.48
2023-05-24T05:44:03.950Z,7.30
2023-05-24T05:48:57.470Z,9.00
2023-05-24T05:53:51.000Z,7.35
2023-05-24T05:58:45.715Z,7.20
2023-05-24T06:03:39.231Z,7.72
2023-05-24T06:08:35.223Z,8.43
2023-05-24T06:13:29.105Z,6.25
2023-05-24T06:18:23.885Z,7.50
2023-05-24T06:23:17.187Z,6.95
2023-05-24T06:28:10.672Z,7.57
2023-05-24T06:33:04.185Z,7.22
2023-05-24T06:38:00.001Z,8.55
2023-05-24T06:42:53.376Z,8.65
2023-05-24T06:47:46.997Z,7.80
2023-05-24T06:52:40.460Z,6.72
2023-05-24T06:57:35.168Z,5.97
2023-05-24T07:02:29.035Z,8.32
2023-05-24T07:07:22.515Z,7.03
2023-05-24T07:12:15.921Z,12.48
2023-05-24T07:17:10.709Z,8.35
2023-05-24T07:22:04.149Z,7.60
2023-05-24T07:26:57.902Z,7.82
2023-05-24T07:31:51.519Z,8.30
2023-05-24T07:36:48.491Z,8.20
2023-05-24T07:41:42.336Z,8.73
2023-05-24T07:46:35.742Z,9.80
2023-05-24T07:51:29.100Z,7.53
2023-05-24T07:56:23.885Z,7.78
2023-05-24T08:01:18.540Z,10.20
2023-05-24T08:06:12.903Z,9.15
2023-05-24T08:11:06.382Z,6.20
2023-05-24T08:16:01.186Z,8.48
2023-05-24T08:20:54.553Z,8.75
2023-05-24T08:25:47.860Z,7.28
2023-05-24T08:30:41.235Z,9.55
2023-05-24T08:35:36.972Z,9.63
2023-05-24T08:40:30.330Z,6.97
2023-05-24T08:45:24.383Z,8.13
2023-05-24T08:50:18.028Z,7.85
2023-05-24T08:55:13.304Z,8.93
2023-05-24T09:00:09.611Z,9.90
2023-05-24T09:05:04.633Z,8.55
2023-05-24T09:10:02.300Z,14.60
2023-05-24T09:14:58.504Z,9.15
2023-05-24T09:19:53.984Z,11.40
2023-05-24T09:24:49.452Z,8.73
2023-05-24T09:29:46.283Z,7.18
2023-05-24T09:34:42.578Z,9.35
2023-05-24T09:39:36.726Z,9.35
2023-05-24T09:44:30.122Z,9.18
2023-05-24T09:49:23.428Z,11.98
2023-05-24T09:54:18.755Z,8.65
2023-05-24T09:59:15.961Z,8.75
2023-05-24T10:04:10.385Z,6.97
2023-05-24T10:09:07.044Z,7.35
2023-05-24T10:14:05.464Z,8.88
2023-05-24T10:18:58.866Z,8.55
2023-05-24T10:24:00.179Z,10.65
2023-05-24T10:29:05.720Z,10.85
2023-05-24T10:34:07.568Z,9.32
2023-05-24T10:39:03.732Z,9.93
2023-05-24T10:44:09.182Z,10.10
2023-05-24T10:49:06.832Z,8.63
2023-05-24T10:54:12.790Z,8.73
2023-05-24T10:59:06.789Z,11.93
2023-05-24T11:04:11.317Z,11.85
2023-05-24T11:09:06.204Z,12.25
2023-05-24T11:14:02.204Z,11.40
2023-05-24T11:18:57.095Z,10.90
2023-05-24T11:23:52.362Z,10.98
2023-05-24T11:28:47.793Z,12.90
2023-05-24T11:33:43.742Z,11.18
2023-05-24T11:38:37.545Z,11.23
2023-05-24T11:43:32.639Z,9.90
2023-05-24T11:48:26.246Z,10.90
2023-05-24T11:53:21.610Z,13.55
2023-05-24T11:58:24.213Z,9.70
2023-05-24T12:03:19.174Z,13.13
2023-05-24T12:08:15.549Z,9.30
2023-05-24T12:13:24.096Z,12.55
2023-05-24T12:18:22.216Z,9.48
2023-05-24T12:23:16.949Z,11.25
2023-05-24T12:28:10.350Z,11.20
2023-05-24T12:33:03.843Z,13.50
2023-05-24T12:38:05.059Z,13.52
2023-05-24T12:42:59.345Z,15.18
2023-05-24T12:47:53.523Z,14.13
2023-05-24T12:52:47.860Z,11.90
2023-05-24T12:57:43.157Z,12.40
2023-05-24T13:02:38.119Z,12.60
2023-05-24T13:07:33.494Z,13.57
2023-05-24T13:12:27.186Z,12.48
2023-05-24T13:17:22.130Z,13.02
2023-05-24T13:22:15.917Z,12.38
2023-05-24T13:27:09.777Z,13.25
2023-05-24T13:32:03.192Z,17.05
2023-05-24T13:37:00.088Z,13.07
2023-05-24T13:41:53.935Z,13.82
2023-05-24T13:46:48.327Z,12.75
2023-05-24T13:51:42.264Z,13.07
2023-05-24T13:56:37.270Z,13.07
2023-05-24T14:01:32.023Z,12.13
2023-05-24T14:06:25.810Z,12.82
2023-05-24T14:11:19.737Z,12.38
2023-05-24T14:16:14.790Z,10.10
2023-05-24T14:21:08.316Z,12.20
2023-05-24T14:26:02.801Z,12.00
2023-05-24T14:30:56.151Z,11.38
2023-05-24T14:35:51.988Z,10.82
2023-05-24T14:40:47.546Z,12.27
2023-05-24T14:45:42.916Z,13.48
2023-05-24T14:50:36.785Z,12.68
2023-05-24T14:55:31.420Z,13.82
2023-05-24T15:00:26.923Z,11.63
2023-05-24T15:05:21.915Z,11.73
2023-05-24T15:10:15.283Z,10.35
2023-05-24T15:15:12.553Z,10.75
2023-05-24T15:20:07.364Z,12.15
2023-05-24T15:25:01.032Z,12.00
2023-05-24T15:29:58.984Z,12.13
2023-05-24T15:34:53.782Z,12.55
2023-05-24T15:39:47.200Z,9.68
2023-05-24T15:44:40.541Z,11.02
2023-05-24T15:49:33.862Z,12.85
2023-05-24T15:54:28.601Z,13.38
2023-05-24T15:59:21.879Z,12.88
2023-05-24T16:04:15.702Z,13.43
2023-05-24T16:09:09.437Z,10.03
2023-05-24T16:14:05.342Z,13.47
2023-05-24T16:18:58.653Z,10.47
2023-05-24T16:23:52.006Z,11.80
2023-05-24T16:28:45.538Z,8.83
2023-05-24T16:33:41.178Z,14.57
2023-05-24T16:38:34.706Z,11.52
2023-05-24T16:43:28.016Z,9.80
2023-05-24T16:48:28.234Z,12.55
2023-05-24T16:53:24.700Z,14.75
2023-05-24T16:58:18.324Z,11.73
2023-05-24T17:03:11.792Z,14.25
2023-05-24T17:08:05.339Z,12.70
2023-05-24T17:13:00.242Z,12.55
2023-05-24T17:17:53.694Z,12.07
2023-05-24T17:22:47.342Z,10.52
2023-05-24T17:27:40.723Z,11.70
2023-05-24T17:32:35.467Z,12.90
2023-05-24T17:37:28.786Z,9.77
2023-05-24T17:42:22.064Z,13.18
2023-05-24T17:47:17.446Z,12.05
2023-05-24T17:52:14.496Z,9.65
2023-05-24T17:57:07.939Z,16.48
2023-05-24T18:02:01.333Z,12.80
2023-05-24T18:06:55.375Z,11.93
2023-05-24T18:11:51.623Z,11.35
2023-05-24T18:16:46.100Z,11.10
2023-05-24T18:21:40.226Z,14.00
2023-05-24T18:26:33.623Z,9.57
2023-05-24T18:31:28.368Z,11.32
2023-05-24T18:36:21.930Z,9.50
2023-05-24T18:41:16.622Z,10.88
2023-05-24T18:46:13.286Z,11.00
2023-05-24T18:51:08.652Z,11.68
2023-05-24T18:56:02.083Z,13.13
2023-05-24T19:00:55.741Z,13.43
2023-05-24T19:05:49.233Z,13.82
2023-05-24T19:10:44.303Z,14.90
2023-05-24T19:15:37.897Z,14.25
2023-05-24T19:20:31.289Z,11.98
2023-05-24T19:25:24.666Z,18.05
2023-05-24T19:30:19.493Z,15.18
2023-05-24T19:35:13.432Z,19.67
2023-05-24T19:40:09.288Z,14.00
2023-05-24T19:45:02.787Z,14.32
2023-05-24T19:49:57.443Z,12.52
2023-05-24T19:54:50.922Z,11.98
2023-05-24T19:59:44.251Z,12.15
2023-05-24T20:04:41.544Z,17.03
2023-05-24T20:09:36.414Z,14.80
2023-05-24T20:14:31.712Z,14.70
2023-05-24T20:19:26.255Z,15.87
2023-05-24T20:24:19.647Z,14.67
2023-05-24T20:29:14.493Z,11.03
2023-05-24T20:34:07.940Z,9.40
2023-05-24T20:39:01.243Z,9.40
2023-05-24T20:43:54.860Z,12.80
2023-05-24T20:48:49.597Z,9.43
2023-05-24T20:53:42.934Z,11.07
2023-05-24T20:58:36.231Z,8.52
2023-05-24T21:03:30.086Z,12.55
2023-05-24T21:08:24.855Z,9.50
2023-05-24T21:13:20.422Z,10.07
2023-05-24T21:18:13.858Z,10.20
2023-05-24T21:23:07.140Z,12.43
2023-05-24T21:28:01.884Z,8.73
2023-05-24T21:32:55.245Z,11.63
2023-05-24T21:37:48.791Z,12.03
2023-05-24T21:42:42.168Z,13.03
2023-05-24T21:47:37.190Z,11.60
2023-05-24T21:52:30.764Z,14.20
2023-05-24T21:57:26.430Z,10.57
2023-05-24T22:02:20.186Z,9.83
2023-05-24T22:07:14.990Z,10.20
2023-05-24T22:12:08.535Z,13.93
2023-05-24T22:17:01.842Z,10.77
2023-05-24T22:21:56.320Z,9.70
2023-05-24T22:26:52.426Z,6.50
2023-05-24T22:31:46.084Z,10.07
2023-05-24T22:36:39.521Z,5.63
2023-05-24T22:41:32.949Z,7.60
2023-05-24T22:46:27.665Z,9.13
2023-05-24T22:51:21.483Z,5.90
2023-05-24T22:56:14.947Z,7.57
2023-05-24T23:01:08.297Z,7.90
2023-05-24T23:06:04.520Z,7.43
2023-05-24T23:10:58.238Z,5.70
2023-05-24T23:15:51.560Z,6.73
2023-05-24T23:20:45.305Z,10.53
2023-05-24T23:25:40.097Z,7.90
2023-05-24T23:30:33.437Z,7.90
2023-05-24T23:35:26.837Z,6.03
2023-05-24T23:40:20.153Z,5.30
2023-05-24T23:45:16.525Z,8.33
2023-05-24T23:50:11.171Z,6.67
2023-05-24T23:55:05.393Z,7.13
2023-05-24T23:59:58.701Z,8.40
